Snag, Canada
Current Conditions -  °F | °C
As of 11:53 AM on Monday 22 Dec 2014 (Local Time) from PAOR Reporting Station
Broken Clouds Broken Clouds  
Wind Chill: -9°   Ceiling: 24000
Heat Index: -9°   Visibility: 10mi
Dew Point: -15°   Wind: 0mph
Humidity: 75%   Direction: NA
Pressure: 29.78"   Gusts: NA
Location:  62.38°N, 140.37°W
Report Text: PAOR 221953Z 00000KT 10SM FEW075 SCT120 BKN240 M23/M26 A2978 RMK AO2 SLP151 ACSL S-SW T12281261
Loading
Personal Weather Stations






























Interactive Weather Map New forecast layout! Learn more

10-Day Weather Forecast

Advertisements
Track Severe Weather on mobile